Time;durP1;ratioP1;P1;durP2;ratioP2;P2;SDS_P1;SDS_P2;PMS_P1;PMS_P2;Temp;Humidity;BMP_temperature;BMP_pressure;BME280_temperature;BME280_humidity;BME280_pressure;Samples;Min_cycle;Max_cycle;Signal;HPM_P1;HPM_P2
2022/10/24 00:01:54;;;;;;;32.03;8.05;;;;;;;;;;5094554;28;20469;-68
2022/10/24 00:04:21;;;;;;;32.05;8.50;;;;;;;;;;5094234;28;20028;-69
2022/10/24 00:06:47;;;;;;;31.77;8.27;;;;;;;;;;5094714;28;20380;-68
2022/10/24 00:09:13;;;;;;;32.63;7.85;;;;;;;;;;5094494;28;20028;-68
2022/10/24 00:11:41;;;;;;;27.67;8.02;;;;;;;;;;5094613;28;20506;-69
2022/10/24 00:14:07;;;;;;;41.83;9.30;;;;;;;;;;5094459;28;20046;-68
2022/10/24 00:16:34;;;;;;;32.40;8.98;;;;;;;;;;5094735;28;20397;-68
2022/10/24 00:19:01;;;;;;;40.97;8.43;;;;;;;;;;5093824;28;20487;-68
2022/10/24 00:21:27;;;;;;;38.95;9.40;;;;;;;;;;5094560;28;20030;-68
2022/10/24 00:23:53;;;;;;;39.20;9.15;;;;;;;;;;5094429;28;20024;-69
2022/10/24 00:26:20;;;;;;;30.70;9.13;;;;;;;;;;5094304;28;20024;-68
2022/10/24 00:28:46;;;;;;;36.97;9.20;;;;;;;;;;5094196;28;20032;-69
2022/10/24 00:31:14;;;;;;;27.58;9.10;;;;;;;;;;5094155;28;20024;-68
2022/10/24 00:33:42;;;;;;;43.33;9.98;;;;;;;;;;5094013;28;20404;-68
2022/10/24 00:36:19;;;;;;;33.08;8.93;;;;;;;;;;5093432;28;20035;-68
2022/10/24 00:38:45;;;;;;;47.53;9.25;;;;;;;;;;5094052;28;20020;-68
2022/10/24 00:41:19;;;;;;;35.20;8.88;;;;;;;;;;5094113;28;20032;-68
2022/10/24 00:43:45;;;;;;;31.45;9.13;;;;;;;;;;5093880;28;20020;-68
2022/10/24 00:46:12;;;;;;;32.88;8.65;;;;;;;;;;5093402;28;20026;-69
2022/10/24 00:48:44;;;;;;;46.63;9.68;;;;;;;;;;5094089;28;20024;-68
2022/10/24 00:51:13;;;;;;;40.10;9.77;;;;;;;;;;5095317;28;20026;-68
2022/10/24 00:53:42;;;;;;;34.67;8.27;;;;;;;;;;5093863;28;20039;-68
2022/10/24 00:56:11;;;;;;;37.40;8.80;;;;;;;;;;5093667;28;20031;-69
2022/10/24 00:58:38;;;;;;;33.70;8.63;;;;;;;;;;5093894;28;20028;-69
2022/10/24 01:01:05;;;;;;;29.88;9.02;;;;;;;;;;5093269;28;20024;-69
2022/10/24 01:03:32;;;;;;;37.50;8.68;;;;;;;;;;5092244;28;20048;-69
2022/10/24 01:06:17;;;;;;;36.38;9.10;;;;;;;;;;5093523;28;20020;-69
2022/10/24 01:08:43;;;;;;;37.70;9.30;;;;;;;;;;5092055;28;20024;-68
2022/10/24 01:11:18;;;;;;;38.20;9.07;;;;;;;;;;5093367;28;20024;-68
2022/10/24 01:14:06;;;;;;;35.13;9.57;;;;;;;;;;5093357;28;20038;-68
2022/10/24 01:16:48;;;;;;;42.13;9.13;;;;;;;;;;5093017;28;20024;-68
2022/10/24 01:19:38;;;;;;;32.03;9.48;;;;;;;;;;5093332;28;20032;-69
2022/10/24 01:22:07;;;;;;;34.63;9.40;;;;;;;;;;5093159;28;20408;-68
2022/10/24 01:24:52;;;;;;;32.00;8.73;;;;;;;;;;5093035;28;20381;-68
2022/10/24 01:27:34;;;;;;;32.22;8.60;;;;;;;;;;5093500;28;20035;-69
2022/10/24 01:30:13;;;;;;;24.42;8.43;;;;;;;;;;5092810;28;20420;-68
2022/10/24 01:32:39;;;;;;;32.60;9.27;;;;;;;;;;5093902;28;20026;-68
2022/10/24 01:35:15;;;;;;;35.58;8.70;;;;;;;;;;5093706;28;20485;-68
2022/10/24 01:37:47;;;;;;;31.90;8.73;;;;;;;;;;5094865;28;20028;-68
2022/10/24 01:40:18;;;;;;;36.33;8.52;;;;;;;;;;5094197;28;20028;-68
2022/10/24 01:42:45;;;;;;;42.97;9.05;;;;;;;;;;5092953;28;20089;-68
2022/10/24 01:45:14;;;;;;;36.92;8.88;;;;;;;;;;5092340;28;20027;-68
2022/10/24 01:47:43;;;;;;;35.38;9.48;;;;;;;;;;5092666;28;20034;-68
2022/10/24 01:50:11;;;;;;;42.25;8.93;;;;;;;;;;5092976;28;20054;-69
2022/10/24 01:52:39;;;;;;;33.83;8.90;;;;;;;;;;5092617;28;20392;-68
2022/10/24 01:55:06;;;;;;;32.78;8.75;;;;;;;;;;5092808;28;20028;-68
2022/10/24 01:57:34;;;;;;;33.78;8.93;;;;;;;;;;5092703;28;20384;-68
2022/10/24 02:00:01;;;;;;;33.13;8.50;;;;;;;;;;5092245;28;20024;-69
2022/10/24 02:02:30;;;;;;;29.58;9.27;;;;;;;;;;5092447;28;20032;-68
2022/10/24 02:05:15;;;;;;;35.22;8.85;;;;;;;;;;5092612;28;20358;-68
2022/10/24 02:07:43;;;;;;;28.33;9.07;;;;;;;;;;5092553;28;20489;-68
2022/10/24 02:10:15;;;;;;;31.05;9.13;;;;;;;;;;5092754;28;20039;-68
2022/10/24 02:12:45;;;;;;;33.55;9.60;;;;;;;;;;5092587;28;20028;-68
2022/10/24 02:15:17;;;;;;;36.55;10.07;;;;;;;;;;5092697;28;20370;-68
2022/10/24 02:17:44;;;;;;;35.00;8.45;;;;;;;;;;5091369;28;20454;-69
2022/10/24 02:20:11;;;;;;;38.35;8.95;;;;;;;;;;5092473;28;20032;-68
2022/10/24 02:22:54;;;;;;;40.25;9.70;;;;;;;;;;5092471;28;20034;-68
2022/10/24 02:25:29;;;;;;;35.15;8.95;;;;;;;;;;5092571;28;20030;-68
2022/10/24 02:28:15;;;;;;;36.80;9.52;;;;;;;;;;5092253;28;20036;-69
2022/10/24 02:30:45;;;;;;;30.35;8.88;;;;;;;;;;5092480;28;20450;-68
2022/10/24 02:33:12;;;;;;;34.63;9.10;;;;;;;;;;5091137;28;20020;-68
2022/10/24 02:35:40;;;;;;;37.38;9.95;;;;;;;;;;5092329;28;20062;-68
2022/10/24 02:38:20;;;;;;;31.05;9.27;;;;;;;;;;5092179;28;20070;-68
2022/10/24 02:40:47;;;;;;;35.25;9.00;;;;;;;;;;5092293;28;20481;-68
2022/10/24 02:43:14;;;;;;;32.47;9.63;;;;;;;;;;5092012;28;20044;-68
2022/10/24 02:45:40;;;;;;;40.10;9.98;;;;;;;;;;5092199;28;20020;-68
2022/10/24 02:48:09;;;;;;;34.88;8.75;;;;;;;;;;5093365;28;20089;-68
2022/10/24 02:50:37;;;;;;;31.48;9.48;;;;;;;;;;5093035;28;20020;-69
2022/10/24 02:53:03;;;;;;;42.00;9.20;;;;;;;;;;5093384;28;20032;-69
2022/10/24 02:55:30;;;;;;;30.92;8.85;;;;;;;;;;5093130;28;20021;-68
2022/10/24 02:57:56;;;;;;;41.55;9.07;;;;;;;;;;5092801;28;20039;-67
2022/10/24 03:00:22;;;;;;;35.47;9.50;;;;;;;;;;5093126;28;20032;-67
2022/10/24 03:02:49;;;;;;;37.17;9.60;;;;;;;;;;5093291;28;20085;-69
2022/10/24 03:05:15;;;;;;;32.65;10.13;;;;;;;;;;5093804;28;20019;-68
2022/10/24 03:07:41;;;;;;;40.30;9.23;;;;;;;;;;5093705;28;20039;-68
2022/10/24 03:10:08;;;;;;;28.17;7.97;;;;;;;;;;5093674;28;20020;-68
2022/10/24 03:12:34;;;;;;;32.35;9.55;;;;;;;;;;5093018;28;20031;-68
2022/10/24 03:15:01;;;;;;;39.10;8.98;;;;;;;;;;5091822;28;20048;-68
2022/10/24 03:17:27;;;;;;;41.83;10.07;;;;;;;;;;5095249;28;20031;-68
2022/10/24 03:19:53;;;;;;;27.58;9.65;;;;;;;;;;5096591;28;20028;-69
2022/10/24 03:22:20;;;;;;;36.22;10.00;;;;;;;;;;5096538;28;20530;-68
2022/10/24 03:24:46;;;;;;;47.08;9.45;;;;;;;;;;5096758;28;20027;-68
2022/10/24 03:27:12;;;;;;;34.97;9.10;;;;;;;;;;5097158;28;20423;-68
2022/10/24 03:29:38;;;;;;;30.75;8.95;;;;;;;;;;5095572;28;20036;-68
2022/10/24 03:32:05;;;;;;;34.47;9.20;;;;;;;;;;5095227;28;20030;-68
2022/10/24 03:34:32;;;;;;;30.25;9.43;;;;;;;;;;5095237;28;20065;-68
2022/10/24 03:36:58;;;;;;;35.97;9.85;;;;;;;;;;5095234;28;20026;-68
2022/10/24 03:39:24;;;;;;;36.28;9.77;;;;;;;;;;5095023;28;20025;-69
2022/10/24 03:41:51;;;;;;;34.83;9.88;;;;;;;;;;5094815;28;20085;-68
2022/10/24 03:44:17;;;;;;;37.58;9.35;;;;;;;;;;5095182;28;20027;-68
2022/10/24 03:46:43;;;;;;;27.90;9.35;;;;;;;;;;5095142;28;20028;-69
2022/10/24 03:49:09;;;;;;;35.22;10.10;;;;;;;;;;5095190;28;20038;-68
2022/10/24 03:51:36;;;;;;;37.00;9.85;;;;;;;;;;5094777;28;20022;-68
2022/10/24 03:54:02;;;;;;;38.05;9.95;;;;;;;;;;5094964;28;20392;-68
2022/10/24 03:56:29;;;;;;;31.33;9.73;;;;;;;;;;5094927;28;20030;-68
2022/10/24 03:58:55;;;;;;;34.58;10.43;;;;;;;;;;5095018;28;20038;-69
2022/10/24 04:01:22;;;;;;;37.83;10.23;;;;;;;;;;5094750;28;20510;-68
2022/10/24 04:03:49;;;;;;;33.92;9.52;;;;;;;;;;5094760;28;20034;-68
2022/10/24 04:06:15;;;;;;;27.98;9.10;;;;;;;;;;5094855;28;20024;-68
2022/10/24 04:08:42;;;;;;;25.92;9.23;;;;;;;;;;5094764;28;20031;-69
2022/10/24 04:11:08;;;;;;;31.38;10.15;;;;;;;;;;5094262;28;20012;-68
2022/10/24 04:13:35;;;;;;;37.25;9.38;;;;;;;;;;5094328;28;20054;-68
2022/10/24 04:16:01;;;;;;;32.60;9.73;;;;;;;;;;5094518;28;20024;-68
2022/10/24 04:18:28;;;;;;;31.17;10.00;;;;;;;;;;5094444;28;20024;-68
2022/10/24 04:20:54;;;;;;;45.20;10.93;;;;;;;;;;5095611;28;20020;-68
2022/10/24 04:23:20;;;;;;;35.40;10.77;;;;;;;;;;5094592;28;20090;-68
2022/10/24 04:25:47;;;;;;;29.30;10.45;;;;;;;;;;5094584;28;20031;-68
2022/10/24 04:28:13;;;;;;;30.77;11.50;;;;;;;;;;5093128;28;20020;-68
2022/10/24 04:30:39;;;;;;;36.05;10.73;;;;;;;;;;5094138;28;20020;-68
2022/10/24 04:33:06;;;;;;;30.83;11.15;;;;;;;;;;5094241;28;20032;-68
2022/10/24 04:35:32;;;;;;;39.10;12.15;;;;;;;;;;5094087;28;20023;-68
2022/10/24 04:37:58;;;;;;;40.88;12.55;;;;;;;;;;5093958;28;20028;-69
2022/10/24 04:40:25;;;;;;;35.75;11.93;;;;;;;;;;5094159;28;20016;-68
2022/10/24 04:42:51;;;;;;;35.17;12.93;;;;;;;;;;5094074;28;20032;-68
2022/10/24 04:45:18;;;;;;;39.63;13.10;;;;;;;;;;5093769;28;20016;-68
2022/10/24 04:47:44;;;;;;;34.80;12.60;;;;;;;;;;5093835;28;20028;-68
2022/10/24 04:50:10;;;;;;;33.30;12.63;;;;;;;;;;5093680;28;20030;-68
2022/10/24 04:52:37;;;;;;;43.70;12.13;;;;;;;;;;5093390;28;20032;-68
2022/10/24 04:55:03;;;;;;;39.67;13.38;;;;;;;;;;5093642;28;20020;-68
2022/10/24 04:57:29;;;;;;;31.77;12.70;;;;;;;;;;5093656;28;20020;-68
2022/10/24 04:59:56;;;;;;;41.08;12.80;;;;;;;;;;5093723;28;20024;-68
2022/10/24 05:02:22;;;;;;;34.03;12.43;;;;;;;;;;5093576;28;20032;-68
2022/10/24 05:04:48;;;;;;;31.25;11.80;;;;;;;;;;5093607;28;20400;-68
2022/10/24 05:07:14;;;;;;;39.60;13.02;;;;;;;;;;5093558;28;20031;-68
2022/10/24 05:09:41;;;;;;;38.85;12.95;;;;;;;;;;5093388;28;20474;-68
2022/10/24 05:12:07;;;;;;;47.30;13.32;;;;;;;;;;5093510;28;20477;-68
2022/10/24 05:14:33;;;;;;;31.10;13.02;;;;;;;;;;5093410;28;20044;-68
2022/10/24 05:17:00;;;;;;;40.67;12.63;;;;;;;;;;5093461;28;20028;-68
2022/10/24 05:19:26;;;;;;;40.53;13.73;;;;;;;;;;5093287;28;20032;-68
2022/10/24 05:21:52;;;;;;;39.00;13.88;;;;;;;;;;5092883;28;20100;-68
2022/10/24 05:24:19;;;;;;;42.55;14.02;;;;;;;;;;5093086;28;20498;-68
2022/10/24 05:26:45;;;;;;;37.83;13.85;;;;;;;;;;5093285;28;20488;-68
2022/10/24 05:29:11;;;;;;;39.97;13.82;;;;;;;;;;5093198;28;20511;-68
2022/10/24 05:31:38;;;;;;;41.53;13.27;;;;;;;;;;5092912;28;20024;-68
2022/10/24 05:34:04;;;;;;;45.78;14.65;;;;;;;;;;5093452;28;20461;-68
2022/10/24 05:36:30;;;;;;;41.95;14.57;;;;;;;;;;5093025;28;20024;-68
2022/10/24 05:38:57;;;;;;;53.03;15.18;;;;;;;;;;5092879;28;20024;-68
2022/10/24 05:41:23;;;;;;;41.13;15.13;;;;;;;;;;5093173;28;20034;-68
2022/10/24 05:43:49;;;;;;;47.45;14.38;;;;;;;;;;5092862;28;20476;-68
2022/10/24 05:46:16;;;;;;;38.30;13.60;;;;;;;;;;5092682;28;20404;-68
2022/10/24 05:48:42;;;;;;;45.60;14.57;;;;;;;;;;5092831;28;20016;-68
2022/10/24 05:51:08;;;;;;;49.45;15.05;;;;;;;;;;5092359;28;20537;-68
2022/10/24 05:53:35;;;;;;;44.00;14.25;;;;;;;;;;5092757;28;20507;-68
2022/10/24 05:56:01;;;;;;;37.80;14.07;;;;;;;;;;5092824;28;20024;-68
2022/10/24 05:58:27;;;;;;;34.25;13.98;;;;;;;;;;5092833;28;20529;-68
2022/10/24 06:00:54;;;;;;;50.47;14.68;;;;;;;;;;5089953;28;20016;-69
2022/10/24 06:03:21;;;;;;;38.55;14.95;;;;;;;;;;5089828;28;20048;-68
2022/10/24 06:05:47;;;;;;;40.45;15.00;;;;;;;;;;5093672;28;20017;-68
2022/10/24 06:08:13;;;;;;;51.15;15.32;;;;;;;;;;5083971;28;20427;-70
2022/10/24 06:10:40;;;;;;;45.13;16.55;;;;;;;;;;5078574;28;20020;-68
2022/10/24 06:13:06;;;;;;;45.55;14.68;;;;;;;;;;5090898;28;20093;-68
2022/10/24 06:15:32;;;;;;;43.22;15.45;;;;;;;;;;5082220;28;20020;-68
2022/10/24 06:17:59;;;;;;;50.63;14.88;;;;;;;;;;5090138;28;20042;-68
2022/10/24 06:20:26;;;;;;;34.88;14.23;;;;;;;;;;5083885;28;20034;-68
2022/10/24 06:22:52;;;;;;;45.22;15.45;;;;;;;;;;5081210;28;20496;-68
2022/10/24 06:25:18;;;;;;;36.88;12.93;;;;;;;;;;5090764;28;20048;-67
2022/10/24 06:27:45;;;;;;;43.42;14.02;;;;;;;;;;5090889;28;20032;-67
2022/10/24 06:30:11;;;;;;;44.67;14.48;;;;;;;;;;5091871;28;20607;-67
2022/10/24 06:32:38;;;;;;;43.78;13.18;;;;;;;;;;5091924;28;20030;-67
2022/10/24 06:35:04;;;;;;;29.17;12.65;;;;;;;;;;5089020;28;20404;-68
2022/10/24 06:37:32;;;;;;;35.60;13.75;;;;;;;;;;5091844;28;20542;-67
2022/10/24 06:39:58;;;;;;;36.97;13.15;;;;;;;;;;5085812;28;20243;-67
2022/10/24 06:42:25;;;;;;;46.67;13.05;;;;;;;;;;5089350;28;20036;-67
2022/10/24 06:44:51;;;;;;;38.45;12.57;;;;;;;;;;5088615;28;20028;-68
2022/10/24 06:47:17;;;;;;;37.55;11.70;;;;;;;;;;5086790;28;20013;-67
2022/10/24 06:49:44;;;;;;;34.50;11.65;;;;;;;;;;5090930;28;20035;-67
2022/10/24 06:52:10;;;;;;;28.88;11.90;;;;;;;;;;5093296;28;20024;-67
2022/10/24 06:54:37;;;;;;;34.42;11.32;;;;;;;;;;5095271;28;20024;-67
2022/10/24 06:57:04;;;;;;;34.00;11.45;;;;;;;;;;5094713;28;20016;-67
2022/10/24 06:59:30;;;;;;;36.10;11.65;;;;;;;;;;5092074;28;20024;-67
2022/10/24 07:01:57;;;;;;;32.00;10.73;;;;;;;;;;5093162;28;20028;-67
2022/10/24 07:04:24;;;;;;;24.63;10.18;;;;;;;;;;5091963;28;20395;-68
2022/10/24 07:06:50;;;;;;;34.33;10.75;;;;;;;;;;5092499;28;20024;-67
2022/10/24 07:09:17;;;;;;;31.15;11.85;;;;;;;;;;5093390;28;20020;-68
2022/10/24 07:11:43;;;;;;;28.98;10.60;;;;;;;;;;5095027;28;20035;-67
2022/10/24 07:14:10;;;;;;;30.85;10.73;;;;;;;;;;5080904;28;20407;-67
2022/10/24 07:16:37;;;;;;;32.83;10.25;;;;;;;;;;5092808;28;20017;-67
2022/10/24 07:19:04;;;;;;;35.10;10.75;;;;;;;;;;5075640;28;20040;-68
2022/10/24 07:21:30;;;;;;;35.38;10.45;;;;;;;;;;5078850;28;20026;-68
2022/10/24 07:23:57;;;;;;;31.27;10.45;;;;;;;;;;5083176;28;20032;-68
2022/10/24 07:26:24;;;;;;;38.47;10.85;;;;;;;;;;5093020;28;20020;-68
2022/10/24 07:28:53;;;;;;;30.50;9.82;;;;;;;;;;5080190;28;20033;-68
2022/10/24 07:31:20;;;;;;;27.33;8.80;;;;;;;;;;5095083;28;20387;-68
2022/10/24 07:33:46;;;;;;;27.23;8.73;;;;;;;;;;5114568;28;20019;-68
2022/10/24 07:36:17;;;;;;;37.67;8.30;;;;;;;;;;5080438;28;20101;-68
2022/10/24 07:38:44;;;;;;;23.70;7.25;;;;;;;;;;5090831;28;20012;-68
2022/10/24 07:41:10;;;;;;;30.15;7.78;;;;;;;;;;5087287;28;20039;-67
2022/10/24 07:43:36;;;;;;;31.63;9.68;;;;;;;;;;5090519;28;20040;-68
2022/10/24 07:46:10;;;;;;;39.25;8.80;;;;;;;;;;5092029;28;20030;-68
2022/10/24 07:48:37;;;;;;;29.02;7.95;;;;;;;;;;5093900;28;20408;-68
2022/10/24 07:51:07;;;;;;;31.17;7.90;;;;;;;;;;5094075;28;20034;-68
2022/10/24 07:53:34;;;;;;;29.60;7.00;;;;;;;;;;5094151;28;20028;-68
2022/10/24 07:56:00;;;;;;;30.65;6.90;;;;;;;;;;5092639;28;20040;-68
2022/10/24 07:58:27;;;;;;;26.27;6.35;;;;;;;;;;5094308;28;20031;-68
2022/10/24 08:00:53;;;;;;;28.33;5.90;;;;;;;;;;5093522;28;20027;-68
2022/10/24 08:03:19;;;;;;;32.80;6.13;;;;;;;;;;5089337;28;20042;-68
2022/10/24 08:05:46;;;;;;;33.85;6.75;;;;;;;;;;5089958;28;20031;-67
2022/10/24 08:08:13;;;;;;;19.63;5.47;;;;;;;;;;5073768;28;20035;-67
2022/10/24 08:10:39;;;;;;;28.90;5.93;;;;;;;;;;5073704;28;20017;-67
2022/10/24 08:13:05;;;;;;;18.20;5.47;;;;;;;;;;5073431;28;20021;-67
2022/10/24 08:15:32;;;;;;;22.90;6.22;;;;;;;;;;5077880;28;20028;-66
2022/10/24 08:17:59;;;;;;;31.50;6.03;;;;;;;;;;5075827;28;20085;-68
2022/10/24 08:20:25;;;;;;;24.95;6.03;;;;;;;;;;5073617;28;20023;-67
2022/10/24 08:22:52;;;;;;;21.10;5.65;;;;;;;;;;5080649;28;20088;-68
2022/10/24 08:25:18;;;;;;;32.00;5.70;;;;;;;;;;5073408;28;20025;-68
2022/10/24 08:27:45;;;;;;;22.98;5.97;;;;;;;;;;5088956;28;20036;-68
2022/10/24 08:30:11;;;;;;;26.27;6.72;;;;;;;;;;5072990;28;20031;-68
2022/10/24 08:32:38;;;;;;;22.60;5.05;;;;;;;;;;5081480;28;20081;-68
2022/10/24 08:35:05;;;;;;;29.88;5.40;;;;;;;;;;5087283;28;20027;-68
2022/10/24 08:37:31;;;;;;;25.85;5.28;;;;;;;;;;5084251;28;20016;-69
2022/10/24 08:39:57;;;;;;;24.25;5.32;;;;;;;;;;5091181;28;20143;-69
2022/10/24 08:42:24;;;;;;;19.98;5.82;;;;;;;;;;5092455;28;20042;-68
2022/10/24 08:44:52;;;;;;;23.65;5.32;;;;;;;;;;5084435;28;20028;-68
2022/10/24 08:47:37;;;;;;;24.70;6.03;;;;;;;;;;5093598;28;20392;-69
2022/10/24 08:50:09;;;;;;;29.65;5.95;;;;;;;;;;5093353;28;20544;-68
2022/10/24 08:52:46;;;;;;;22.55;5.90;;;;;;;;;;5093186;28;20088;-68
2022/10/24 08:55:18;;;;;;;25.10;5.32;;;;;;;;;;5092622;28;20028;-68
2022/10/24 08:57:46;;;;;;;189.27;27.35;;;;;;;;;;5089048;28;20031;-69
2022/10/24 09:00:15;;;;;;;22.88;5.95;;;;;;;;;;5088763;28;20030;-68
2022/10/24 09:02:43;;;;;;;31.95;6.72;;;;;;;;;;5091620;28;20521;-69
2022/10/24 09:05:16;;;;;;;23.15;5.32;;;;;;;;;;5076009;28;20028;-69
2022/10/24 09:07:45;;;;;;;32.17;6.55;;;;;;;;;;5088577;28;20500;-69
2022/10/24 09:10:23;;;;;;;38.93;6.03;;;;;;;;;;5092697;28;20020;-68
2022/10/24 09:12:50;;;;;;;32.40;6.10;;;;;;;;;;5091439;28;20056;-69
2022/10/24 09:15:22;;;;;;;26.20;6.13;;;;;;;;;;5090962;28;20024;-68
2022/10/24 09:17:49;;;;;;;30.98;7.00;;;;;;;;;;5087772;28;20020;-68
2022/10/24 09:20:24;;;;;;;32.83;6.80;;;;;;;;;;5090030;28;20023;-68
2022/10/24 09:22:56;;;;;;;23.38;6.82;;;;;;;;;;5090248;28;20040;-68
2022/10/24 09:25:26;;;;;;;26.98;6.32;;;;;;;;;;5092230;28;20020;-68
2022/10/24 09:27:53;;;;;;;1999.90;314.25;;;;;;;;;;5092018;28;20028;-68
2022/10/24 09:30:25;;;;;;;59.40;9.98;;;;;;;;;;5092071;28;20020;-68
2022/10/24 09:32:53;;;;;;;26.20;6.10;;;;;;;;;;5091814;28;20423;-69
2022/10/24 09:35:21;;;;;;;28.33;6.30;;;;;;;;;;5092427;28;20032;-68
2022/10/24 09:37:54;;;;;;;25.90;5.88;;;;;;;;;;5092110;28;20034;-68
2022/10/24 09:40:21;;;;;;;28.25;6.45;;;;;;;;;;5092155;28;20024;-68
2022/10/24 09:43:06;;;;;;;23.75;6.10;;;;;;;;;;5091598;28;20396;-69
2022/10/24 09:45:38;;;;;;;28.58;6.18;;;;;;;;;;5092022;28;20016;-69
2022/10/24 09:48:07;;;;;;;32.00;6.95;;;;;;;;;;5081146;28;20020;-68
2022/10/24 09:50:34;;;;;;;23.25;5.75;;;;;;;;;;5092230;28;20069;-68
2022/10/24 09:53:03;;;;;;;20.88;5.55;;;;;;;;;;5089497;28;20136;-68
2022/10/24 09:55:30;;;;;;;25.90;6.15;;;;;;;;;;5091846;28;20024;-68
2022/10/24 09:58:02;;;;;;;23.40;5.75;;;;;;;;;;5090347;28;20042;-68
2022/10/24 10:00:32;;;;;;;29.20;6.53;;;;;;;;;;5092183;28;20034;-68
2022/10/24 10:03:00;;;;;;;21.33;5.47;;;;;;;;;;5090789;28;20036;-68
2022/10/24 10:05:29;;;;;;;24.33;5.72;;;;;;;;;;5090328;28;20032;-68
2022/10/24 10:07:55;;;;;;;16.52;6.13;;;;;;;;;;5091200;28;20031;-68
2022/10/24 10:10:36;;;;;;;28.17;6.25;;;;;;;;;;5091617;28;20024;-68
2022/10/24 10:13:24;;;;;;;23.30;5.57;;;;;;;;;;5091128;28;20026;-69
2022/10/24 10:15:55;;;;;;;19.40;5.45;;;;;;;;;;5091803;28;20016;-69
2022/10/24 10:18:32;;;;;;;23.02;5.65;;;;;;;;;;5091689;28;20036;-69
2022/10/24 10:21:05;;;;;;;21.83;5.57;;;;;;;;;;5090447;28;20028;-69
2022/10/24 10:23:39;;;;;;;17.75;5.05;;;;;;;;;;5090653;28;20036;-69
2022/10/24 10:26:14;;;;;;;25.80;5.20;;;;;;;;;;5091493;28;20050;-69
2022/10/24 10:29:01;;;;;;;20.50;5.82;;;;;;;;;;5095464;28;20028;-69
2022/10/24 10:31:27;;;;;;;23.38;6.07;;;;;;;;;;5095607;28;20392;-69
2022/10/24 10:34:04;;;;;;;19.98;5.15;;;;;;;;;;5094088;28;20038;-69
2022/10/24 10:36:54;;;;;;;23.38;4.88;;;;;;;;;;5078254;28;20035;-69
2022/10/24 10:39:35;;;;;;;25.90;4.40;;;;;;;;;;5073390;28;20044;-68
2022/10/24 10:42:13;;;;;;;14.57;4.10;;;;;;;;;;5072658;28;20037;-69
2022/10/24 10:44:46;;;;;;;16.30;4.22;;;;;;;;;;5073052;28;20040;-69
2022/10/24 10:47:34;;;;;;;25.60;4.72;;;;;;;;;;5073462;28;20021;-69
2022/10/24 10:50:01;;;;;;;10.70;3.97;;;;;;;;;;5073015;28;20094;-69
2022/10/24 10:52:32;;;;;;;16.80;3.72;;;;;;;;;;5073123;28;20024;-69
2022/10/24 10:54:58;;;;;;;13.77;3.13;;;;;;;;;;5072421;28;20528;-69
2022/10/24 10:57:30;;;;;;;12.15;2.83;;;;;;;;;;5073188;28;20024;-69
2022/10/24 10:59:59;;;;;;;5.80;2.10;;;;;;;;;;5073043;28;20028;-69
2022/10/24 11:02:37;;;;;;;8.23;2.22;;;;;;;;;;5072705;28;20021;-68
2022/10/24 11:05:18;;;;;;;13.15;2.50;;;;;;;;;;5072446;28;20521;-68
2022/10/24 11:07:47;;;;;;;9.30;2.65;;;;;;;;;;5067850;28;20032;-69
2022/10/24 11:10:20;;;;;;;10.25;2.55;;;;;;;;;;5070590;28;20037;-69
2022/10/24 11:12:46;;;;;;;10.02;2.10;;;;;;;;;;5071612;28;20051;-69
2022/10/24 11:15:19;;;;;;;7.82;2.33;;;;;;;;;;5072050;28;20965;-68
2022/10/24 11:17:54;;;;;;;7.50;1.92;;;;;;;;;;5094533;28;20472;-68
2022/10/24 11:20:23;;;;;;;8.18;2.08;;;;;;;;;;5094393;28;20024;-68
2022/10/24 11:23:11;;;;;;;9.15;2.13;;;;;;;;;;5094285;28;20036;-69
2022/10/24 11:25:38;;;;;;;6.60;1.90;;;;;;;;;;5093738;28;20042;-69
2022/10/24 11:28:16;;;;;;;6.10;1.73;;;;;;;;;;5093297;28;20046;-69
2022/10/24 11:30:46;;;;;;;7.38;1.40;;;;;;;;;;5094104;28;20032;-69
2022/10/24 11:33:16;;;;;;;2.10;1.05;;;;;;;;;;5094078;28;20396;-69
2022/10/24 11:35:52;;;;;;;3.50;0.80;;;;;;;;;;5091879;28;20028;-69
2022/10/24 11:38:22;;;;;;;2.88;0.90;;;;;;;;;;5083243;28;20032;-68
2022/10/24 11:40:52;;;;;;;4.75;1.63;;;;;;;;;;5085274;28;20378;-69
2022/10/24 11:43:26;;;;;;;8.02;1.08;;;;;;;;;;5088344;28;20032;-69
2022/10/24 11:45:59;;;;;;;6.22;1.00;;;;;;;;;;5082627;28;20039;-68
2022/10/24 11:48:37;;;;;;;13.18;1.60;;;;;;;;;;5085300;28;20036;-68
2022/10/24 11:51:16;;;;;;;5.18;1.13;;;;;;;;;;5084103;28;20554;-69
2022/10/24 11:53:51;;;;;;;7.57;1.90;;;;;;;;;;5084263;28;20024;-68
2022/10/24 11:56:36;;;;;;;6.50;1.23;;;;;;;;;;5083366;28;20412;-70
2022/10/24 11:59:03;;;;;;;2.83;0.80;;;;;;;;;;5083141;28;20541;-69
2022/10/24 12:01:30;;;;;;;2.85;1.02;;;;;;;;;;5089715;28;20028;-70
2022/10/24 12:03:59;;;;;;;17.92;1.48;;;;;;;;;;5085260;28;20556;-70
2022/10/24 12:06:34;;;;;;;5.37;0.97;;;;;;;;;;5089156;28;20057;-69
2022/10/24 12:09:04;;;;;;;4.53;1.20;;;;;;;;;;5077480;28;20263;-70
2022/10/24 12:11:33;;;;;;;5.95;1.17;;;;;;;;;;5093742;28;20027;-70
2022/10/24 12:14:20;;;;;;;3.05;0.98;;;;;;;;;;5093365;28;20048;-70
2022/10/24 12:17:01;;;;;;;2.97;1.10;;;;;;;;;;5091293;28;20493;-70
2022/10/24 12:19:28;;;;;;;5.10;1.10;;;;;;;;;;5091475;28;20031;-69
2022/10/24 12:21:57;;;;;;;4.25;1.02;;;;;;;;;;5092680;28;20016;-70
2022/10/24 12:24:29;;;;;;;8.13;1.30;;;;;;;;;;5092620;28;20431;-69
2022/10/24 12:27:06;;;;;;;2.58;1.05;;;;;;;;;;5092579;28;20072;-69
2022/10/24 12:29:34;;;;;;;2.45;0.90;;;;;;;;;;5086222;28;20021;-69
2022/10/24 12:32:21;;;;;;;10.40;1.50;;;;;;;;;;5090988;28;20024;-69
2022/10/24 12:34:56;;;;;;;7.55;1.15;;;;;;;;;;5092786;28;20412;-70
2022/10/24 12:37:24;;;;;;;9.18;1.38;;;;;;;;;;5090440;28;20024;-69
2022/10/24 12:39:51;;;;;;;31.17;2.20;;;;;;;;;;5092796;28;20501;-70
2022/10/24 12:42:23;;;;;;;11.45;1.30;;;;;;;;;;5091427;28;20124;-70
2022/10/24 12:45:10;;;;;;;5.10;1.08;;;;;;;;;;5091237;28;20054;-70
2022/10/24 12:47:36;;;;;;;5.47;2.22;;;;;;;;;;5091637;28;20039;-70
2022/10/24 12:50:38;;;;;;;4.97;1.17;;;;;;;;;;5089949;28;20396;-70
2022/10/24 12:53:16;;;;;;;3.55;1.10;;;;;;;;;;5077685;28;20027;-70
2022/10/24 12:55:42;;;;;;;5.93;1.67;;;;;;;;;;5065951;28;20039;-70
2022/10/24 12:58:22;;;;;;;4.30;1.00;;;;;;;;;;5068257;28;20505;-70
2022/10/24 13:01:00;;;;;;;4.38;0.90;;;;;;;;;;5068421;28;20037;-70
2022/10/24 13:03:45;;;;;;;3.08;1.38;;;;;;;;;;5067349;28;20426;-70
2022/10/24 13:06:17;;;;;;;1.90;0.90;;;;;;;;;;5067830;28;20021;-70
2022/10/24 13:08:53;;;;;;;2.78;0.90;;;;;;;;;;5069474;28;20039;-70
2022/10/24 13:11:37;;;;;;;1.75;0.70;;;;;;;;;;5067266;28;20900;-69
2022/10/24 13:14:19;;;;;;;5.20;0.90;;;;;;;;;;5068564;28;20050;-69
2022/10/24 13:16:51;;;;;;;14.48;2.22;;;;;;;;;;5043025;28;20159;-70
2022/10/24 13:19:20;;;;;;;3.20;1.30;;;;;;;;;;5072762;28;20036;-69
2022/10/24 13:21:47;;;;;;;5.97;1.52;;;;;;;;;;5068850;28;20033;-70
2022/10/24 13:24:17;;;;;;;6.68;1.17;;;;;;;;;;5068663;28;20044;-70
2022/10/24 13:26:52;;;;;;;6.53;1.20;;;;;;;;;;5075607;28;20035;-71
2022/10/24 13:29:21;;;;;;;3.47;0.90;;;;;;;;;;5091391;28;20032;-69
2022/10/24 13:31:47;;;;;;;1.60;0.77;;;;;;;;;;5091637;28;20041;-70
2022/10/24 13:34:20;;;;;;;1.38;0.73;;;;;;;;;;5090556;28;20084;-71
2022/10/24 13:36:57;;;;;;;4.40;0.75;;;;;;;;;;5089411;28;20022;-70
2022/10/24 13:39:25;;;;;;;2.85;0.85;;;;;;;;;;5081145;28;20028;-70
2022/10/24 13:42:00;;;;;;;4.93;0.93;;;;;;;;;;5091800;28;20027;-70
2022/10/24 13:44:34;;;;;;;2.85;0.80;;;;;;;;;;5090705;28;20035;-69
2022/10/24 13:47:21;;;;;;;1.65;0.82;;;;;;;;;;5090696;28;20036;-70
2022/10/24 13:50:14;;;;;;;3.28;1.00;;;;;;;;;;5089705;28;20016;-70
2022/10/24 13:52:46;;;;;;;1.60;0.95;;;;;;;;;;5091152;28;20015;-70
2022/10/24 13:55:21;;;;;;;2.88;1.05;;;;;;;;;;5105340;28;20023;-70
2022/10/24 13:58:07;;;;;;;3.88;1.08;;;;;;;;;;5091455;28;20028;-70
2022/10/24 14:00:39;;;;;;;1.90;0.90;;;;;;;;;;5090455;28;20028;-70
2022/10/24 14:03:11;;;;;;;3.70;0.80;;;;;;;;;;5088557;28;20509;-69
2022/10/24 14:05:40;;;;;;;3.00;0.80;;;;;;;;;;5090715;28;20020;-69
2022/10/24 14:08:08;;;;;;;1.80;0.77;;;;;;;;;;5090194;28;20024;-69
2022/10/24 14:10:35;;;;;;;3.58;0.60;;;;;;;;;;5090801;28;20073;-70
2022/10/24 14:13:01;;;;;;;4.60;0.80;;;;;;;;;;5091000;28;20472;-70
2022/10/24 14:15:31;;;;;;;4.68;1.17;;;;;;;;;;5090526;28;20039;-69
2022/10/24 14:17:59;;;;;;;5.97;1.25;;;;;;;;;;5091123;28;20493;-70
2022/10/24 14:20:27;;;;;;;8.27;1.35;;;;;;;;;;5090880;28;20032;-69
2022/10/24 14:22:54;;;;;;;7.85;1.35;;;;;;;;;;5087786;28;20046;-70
2022/10/24 14:25:25;;;;;;;3.78;1.10;;;;;;;;;;5089748;28;20030;-68
2022/10/24 14:27:52;;;;;;;3.45;1.05;;;;;;;;;;5100081;28;20554;-69
2022/10/24 14:30:19;;;;;;;13.23;1.40;;;;;;;;;;5089934;28;20032;-70
2022/10/24 14:32:46;;;;;;;10.63;1.05;;;;;;;;;;5090549;28;20024;-70
2022/10/24 14:35:13;;;;;;;12.48;1.63;;;;;;;;;;5089815;28;20020;-70
2022/10/24 14:37:40;;;;;;;12.60;1.33;;;;;;;;;;5087457;28;20019;-70
2022/10/24 14:40:14;;;;;;;23.13;2.80;;;;;;;;;;5086020;28;20029;-70
2022/10/24 14:42:41;;;;;;;5.57;1.00;;;;;;;;;;5091119;28;20032;-69
2022/10/24 14:45:20;;;;;;;9.27;1.60;;;;;;;;;;5096462;28;20022;-70